Ana Sayfa
METAR-TAF:

METAR-TAF

Havaalanları :

Ulan Batur, Moğolistan

Cengiz Han Uluslararası Havalimanı

Enlem: 47-55N, Boylam: 106-52E, yükseklik: 1306 m

Güncel hava durumu gözlemi

Rapor saat 20:00 UTC de 14 dakika önce yapıldı.
Rüzgar değişken yönden 2 kt
Sıcaklık -24°C
Nem 76%
Basınç 1013 hPa
Görüş mesafesi: 8000 m

METAR: ZMUB 242000Z VRB01MPS 8000NW NSC M24/M27 Q1013 NOSIG RMK QFE652.6 74 NT

Saat: 04:14 (20:14 UTC)

Tahmin

Rapor saat 16:40 UTC de 3 saat ve 34 dakika önce yapıldı.
Ayın 24'si saat 18 UTC'den ayın 25'si saat 24 UTC'ye kadar geçerli Tahmin
Rüzgar değişken yönden 4 kt
Görüş mesafesi: 6000 m
10000 ft yükseklikte parçalı bulutlu

TAF: ZMUB 241640Z 2418/2524 VRB02MPS 6000 SCT100 TNM26/2423Z TXM08/2507Z

4.000'den fazla havaalanı için hava durumu gözlemleri ve tahminleri (METAR ve TAF raporları).

Kullanılabilir istasyonlar harita üzerinde sarı ve kırmızı noktalarla gösterilir.

İstasyonun adını görmek için fareyi noktanın üzerinde gezdirin.

Sonrasında hava gözlem ve tahminlerini görmek için tıklayın.

Haritayı değiştirmek için: yaklaştırmak için siyah artı işaretli yeşil düğmeye ve uzaklaştırmak için de eksi işaretli düğmeye hızla tıklayın; bitişik haritalar için yeşil okları kullanın.


METAR-TAF: